Oakwood, Oklahoma
Current Conditions -  °F | °C
As of 10:15 AM on Saturday 25 Oct 2014 (Local Time) from KJWG Reporting Station
Clear Clear  
Wind Chill: 72°   Ceiling: Unl
Heat Index: 72°   Visibility: 10mi
Dew Point: 63°   Wind: 6mph
Humidity: 73%   Direction: 220°SW
Pressure: 30.1"   Gusts: NA
Location:  35.93°N, 98.71°W
Report Text: KJWG 251515Z AUTO 22005KT 10SM CLR 22/17 A3010 RMK AO2 T02210170
Loading
Personal Weather Stations






























Interactive Weather Map New forecast layout! Learn more

10-Day Weather Forecast

Advertisements
Track Severe Weather on mobile